createdAt,value
2022-11-13T00:01:50.838Z,11.60
2022-11-13T00:04:43.458Z,11.60
2022-11-13T00:07:36.926Z,12.82
2022-11-13T00:10:29.389Z,11.77
2022-11-13T00:13:26.139Z,11.40
2022-11-13T00:16:22.902Z,11.13
2022-11-13T00:19:16.827Z,11.98
2022-11-13T00:22:09.241Z,12.20
2022-11-13T00:25:01.536Z,10.50
2022-11-13T00:27:54.062Z,11.63
2022-11-13T00:30:46.701Z,11.88
2022-11-13T00:34:05.202Z,13.15
2022-11-13T00:36:53.024Z,12.38
2022-11-13T00:39:45.071Z,12.07
2022-11-13T00:42:37.599Z,14.25
2022-11-13T00:45:29.895Z,10.98
2022-11-13T00:48:22.383Z,12.68
2022-11-13T00:51:15.212Z,11.30
2022-11-13T00:54:09.250Z,12.40
2022-11-13T00:57:01.446Z,11.45
2022-11-13T00:59:53.725Z,11.57
2022-11-13T01:02:46.216Z,12.00
2022-11-13T01:05:39.676Z,15.15
2022-11-13T01:08:32.081Z,11.82
2022-11-13T01:11:27.876Z,11.43
2022-11-13T01:14:20.351Z,11.05
2022-11-13T01:17:12.569Z,12.00
2022-11-13T01:20:05.443Z,11.10
2022-11-13T01:22:57.719Z,11.95
2022-11-13T01:25:50.020Z,12.23
2022-11-13T01:28:44.976Z,12.68
2022-11-13T01:31:37.254Z,11.90
2022-11-13T01:34:29.972Z,14.32
2022-11-13T01:37:22.334Z,12.18
2022-11-13T01:40:15.619Z,13.88
2022-11-13T01:43:24.083Z,12.73
2022-11-13T01:46:40.085Z,14.20
2022-11-13T01:49:35.971Z,13.13
2022-11-13T01:52:31.074Z,13.70
2022-11-13T01:55:23.530Z,12.00
2022-11-13T01:58:16.197Z,11.63
2022-11-13T02:01:08.397Z,12.18
2022-11-13T02:04:02.382Z,11.80
2022-11-13T02:06:57.951Z,13.00
2022-11-13T02:09:52.056Z,12.82
2022-11-13T02:12:49.325Z,12.23
2022-11-13T02:15:43.412Z,13.05
2022-11-13T02:21:35.745Z,11.32
2022-11-13T02:24:35.859Z,13.13
2022-11-13T02:27:37.565Z,12.50
2022-11-13T02:30:32.146Z,13.43
2022-11-13T02:33:29.963Z,11.95
2022-11-13T02:36:25.318Z,13.23
2022-11-13T02:39:17.583Z,12.38
2022-11-13T02:42:11.305Z,12.23
2022-11-13T02:45:04.193Z,13.02
2022-11-13T02:47:56.924Z,12.70
2022-11-13T02:50:50.379Z,12.35
2022-11-13T02:53:43.185Z,11.95
2022-11-13T02:56:35.777Z,12.80
2022-11-13T02:59:29.510Z,14.30
2022-11-13T03:02:21.891Z,13.27
2022-11-13T03:05:14.409Z,14.45
2022-11-13T03:08:08.362Z,12.57
2022-11-13T03:11:00.506Z,11.65
2022-11-13T03:13:52.987Z,13.60
2022-11-13T03:16:46.597Z,13.15
2022-11-13T03:19:39.127Z,12.70
2022-11-13T03:22:31.661Z,12.90
2022-11-13T03:25:24.144Z,12.40
2022-11-13T03:28:16.320Z,12.85
2022-11-13T03:31:09.096Z,11.68
2022-11-13T03:34:03.232Z,13.02
2022-11-13T03:36:55.492Z,12.73
2022-11-13T03:39:47.874Z,12.98
2022-11-13T03:42:40.286Z,11.45
2022-11-13T03:45:33.078Z,13.18
2022-11-13T03:48:25.744Z,13.07
2022-11-13T03:51:19.433Z,12.70
2022-11-13T03:54:11.964Z,14.60
2022-11-13T03:57:04.407Z,12.50
2022-11-13T03:59:56.749Z,12.65
2022-11-13T04:02:48.973Z,13.20
2022-11-13T04:05:41.296Z,11.77
2022-11-13T04:08:35.904Z,13.90
2022-11-13T04:14:20.235Z,11.77
2022-11-13T04:17:12.467Z,13.80
2022-11-13T04:20:05.113Z,15.50
2022-11-13T04:22:58.469Z,14.57
2022-11-13T04:25:52.630Z,13.88
2022-11-13T04:28:44.781Z,14.57
2022-11-13T04:31:37.049Z,12.85
2022-11-13T04:34:29.326Z,13.48
2022-11-13T04:37:21.416Z,12.68
2022-11-13T04:40:14.095Z,12.32
2022-11-13T04:43:06.707Z,12.85
2022-11-13T04:45:59.246Z,13.13
2022-11-13T04:48:51.542Z,13.05
2022-11-13T04:51:43.859Z,14.32
2022-11-13T04:54:36.345Z,12.93
2022-11-13T04:57:28.939Z,12.15
2022-11-13T05:00:23.076Z,12.60
2022-11-13T05:03:15.556Z,13.85
2022-11-13T05:06:09.954Z,12.30
2022-11-13T05:09:02.594Z,12.13
2022-11-13T05:11:54.855Z,12.57
2022-11-13T05:14:47.273Z,13.00
2022-11-13T05:17:41.224Z,14.00
2022-11-13T05:20:33.460Z,12.90
2022-11-13T05:23:25.859Z,13.02
2022-11-13T05:26:18.303Z,14.63
2022-11-13T05:29:10.663Z,14.30
2022-11-13T05:32:03.164Z,13.13
2022-11-13T05:34:57.130Z,13.45
2022-11-13T05:37:49.656Z,16.27
2022-11-13T05:40:41.896Z,13.77
2022-11-13T05:43:34.893Z,14.02
2022-11-13T05:46:28.839Z,14.73
2022-11-13T05:49:21.378Z,14.25
2022-11-13T05:52:15.335Z,13.93
2022-11-13T05:55:09.153Z,13.18
2022-11-13T05:58:01.868Z,14.90
2022-11-13T06:00:54.248Z,14.52
2022-11-13T06:03:47.422Z,13.93
2022-11-13T06:06:39.681Z,15.00
2022-11-13T06:09:33.302Z,13.10
2022-11-13T06:12:25.351Z,15.55
2022-11-13T06:15:17.835Z,14.30
2022-11-13T06:18:10.267Z,13.52
2022-11-13T06:21:05.300Z,13.60
2022-11-13T06:23:58.396Z,14.13
2022-11-13T06:26:52.734Z,13.32
2022-11-13T06:29:45.182Z,12.98
2022-11-13T06:32:37.819Z,14.07
2022-11-13T06:35:30.169Z,16.27
2022-11-13T06:38:22.511Z,14.13
2022-11-13T06:41:17.598Z,15.15
2022-11-13T06:44:11.282Z,15.45
2022-11-13T06:47:03.678Z,14.25
2022-11-13T06:49:55.974Z,15.43
2022-11-13T06:52:48.303Z,14.98
2022-11-13T06:55:44.857Z,13.38
2022-11-13T06:58:37.347Z,14.40
2022-11-13T07:01:31.175Z,14.38
2022-11-13T07:04:23.664Z,13.50
2022-11-13T07:07:15.672Z,15.48
2022-11-13T07:10:09.073Z,14.13
2022-11-13T07:13:01.705Z,14.10
2022-11-13T07:15:54.341Z,13.88
2022-11-13T07:18:51.577Z,14.75
2022-11-13T07:21:44.000Z,14.40
2022-11-13T07:24:36.436Z,13.52
2022-11-13T07:27:28.677Z,14.07
2022-11-13T07:30:21.858Z,13.82
2022-11-13T07:33:14.408Z,13.32
2022-11-13T07:36:09.763Z,15.18
2022-11-13T07:39:02.144Z,15.10
2022-11-13T07:41:54.578Z,12.10
2022-11-13T07:44:55.276Z,12.90
2022-11-13T07:47:47.680Z,13.27
2022-11-13T07:50:40.329Z,12.82
2022-11-13T07:53:41.022Z,14.13
2022-11-13T07:56:33.379Z,13.85
2022-11-13T07:59:25.773Z,13.40
2022-11-13T08:02:22.228Z,14.05
2022-11-13T08:05:18.034Z,12.43
2022-11-13T08:08:13.430Z,14.18
2022-11-13T08:11:09.444Z,14.82
2022-11-13T08:14:01.626Z,13.02
2022-11-13T08:16:53.951Z,14.00
2022-11-13T08:19:46.566Z,12.70
2022-11-13T08:22:38.957Z,13.82
2022-11-13T08:25:32.806Z,12.32
2022-11-13T08:28:26.715Z,11.27
2022-11-13T08:31:19.232Z,12.23
2022-11-13T08:34:11.875Z,13.70
2022-11-13T08:37:04.477Z,12.75
2022-11-13T08:39:56.931Z,13.00
2022-11-13T08:42:50.152Z,12.10
2022-11-13T08:45:46.380Z,12.65
2022-11-13T08:48:38.970Z,12.38
2022-11-13T08:51:31.218Z,11.52
2022-11-13T08:54:23.625Z,13.32
2022-11-13T08:57:16.037Z,12.80
2022-11-13T09:00:09.327Z,12.82
2022-11-13T09:03:03.230Z,13.68
2022-11-13T09:05:55.522Z,11.55
2022-11-13T09:08:47.859Z,11.27
2022-11-13T09:11:40.402Z,11.70
2022-11-13T09:14:32.823Z,11.93
2022-11-13T09:17:25.356Z,12.15
2022-11-13T09:20:22.812Z,11.63
2022-11-13T09:23:15.738Z,12.75
2022-11-13T09:26:07.892Z,12.27
2022-11-13T09:29:00.303Z,12.27
2022-11-13T09:31:52.783Z,11.48
2022-11-13T09:34:45.138Z,11.95
2022-11-13T09:37:39.034Z,11.25
2022-11-13T09:40:34.941Z,10.95
2022-11-13T09:43:34.857Z,10.57
2022-11-13T09:46:39.448Z,10.23
2022-11-13T09:49:36.657Z,11.77
2022-11-13T09:52:32.527Z,9.95
2022-11-13T09:55:31.695Z,10.50
2022-11-13T09:58:30.730Z,11.65
2022-11-13T10:01:27.965Z,10.85
2022-11-13T10:04:27.715Z,11.98
2022-11-13T10:07:32.764Z,11.02
2022-11-13T10:10:48.250Z,9.70
2022-11-13T10:13:48.339Z,10.70
2022-11-13T10:16:44.649Z,9.68
2022-11-13T10:19:43.966Z,9.57
2022-11-13T10:22:40.740Z,10.65
2022-11-13T10:25:38.134Z,10.07
2022-11-13T10:31:44.811Z,10.32
2022-11-13T10:34:37.263Z,11.07
2022-11-13T10:37:46.488Z,9.68
2022-11-13T10:40:42.191Z,10.48
2022-11-13T10:43:35.537Z,10.23
2022-11-13T10:46:30.859Z,10.45
2022-11-13T10:49:29.044Z,9.35
2022-11-13T10:52:23.709Z,10.20
2022-11-13T10:58:17.032Z,9.60
2022-11-13T11:01:17.137Z,10.43
2022-11-13T11:04:15.144Z,9.13
2022-11-13T11:07:21.063Z,9.68
2022-11-13T11:10:23.938Z,9.27
2022-11-13T11:13:25.711Z,8.20
2022-11-13T11:16:22.885Z,9.35
2022-11-13T11:19:16.718Z,8.68
2022-11-13T11:22:13.080Z,8.60
2022-11-13T11:25:14.158Z,9.00
2022-11-13T11:28:14.077Z,9.85
2022-11-13T11:31:16.630Z,9.90
2022-11-13T11:34:19.263Z,8.40
2022-11-13T11:37:15.870Z,8.80
2022-11-13T11:40:20.657Z,8.82
2022-11-13T11:43:21.136Z,8.45
2022-11-13T11:46:16.715Z,8.80
2022-11-13T11:49:11.413Z,8.73
2022-11-13T11:55:15.964Z,8.82
2022-11-13T11:58:20.942Z,9.68
2022-11-13T12:01:24.589Z,9.52
2022-11-13T12:04:32.000Z,9.00
2022-11-13T12:07:34.425Z,8.43
2022-11-13T12:10:32.636Z,8.40
2022-11-13T12:13:30.320Z,7.75
2022-11-13T12:16:31.621Z,8.70
2022-11-13T12:19:35.834Z,8.45
2022-11-13T12:22:39.974Z,7.93
2022-11-13T12:25:40.165Z,8.85
2022-11-13T12:28:41.222Z,7.88
2022-11-13T12:31:48.296Z,8.10
2022-11-13T12:34:46.477Z,8.70
2022-11-13T12:37:44.315Z,7.85
2022-11-13T12:40:44.755Z,8.93
2022-11-13T12:43:59.463Z,8.80
2022-11-13T12:46:55.036Z,7.80
2022-11-13T12:49:47.898Z,8.00
2022-11-13T12:52:40.342Z,8.07
2022-11-13T12:55:35.306Z,7.38
2022-11-13T12:58:30.627Z,8.40
2022-11-13T13:01:25.390Z,8.00
2022-11-13T13:04:39.054Z,8.05
2022-11-13T13:07:53.943Z,7.78
2022-11-13T13:10:58.901Z,7.45
2022-11-13T13:13:58.173Z,8.23
2022-11-13T13:16:50.890Z,7.75
2022-11-13T13:19:44.540Z,8.55
2022-11-13T13:22:38.145Z,7.57
2022-11-13T13:25:32.116Z,7.90
2022-11-13T13:28:24.399Z,8.50
2022-11-13T13:31:28.979Z,8.77
2022-11-13T13:34:35.264Z,8.43
2022-11-13T13:37:37.457Z,8.85
2022-11-13T13:40:39.498Z,8.02
2022-11-13T13:43:45.336Z,8.35
2022-11-13T13:46:38.375Z,8.57
2022-11-13T13:49:30.873Z,7.43
2022-11-13T13:52:30.824Z,9.55
2022-11-13T13:55:29.025Z,9.68
2022-11-13T13:58:25.399Z,8.27
2022-11-13T14:01:28.857Z,7.75
2022-11-13T14:04:22.999Z,6.80
2022-11-13T14:07:24.026Z,8.48
2022-11-13T14:10:22.223Z,7.63
2022-11-13T14:13:15.483Z,7.47
2022-11-13T14:16:09.375Z,7.53
2022-11-13T14:19:05.718Z,8.35
2022-11-13T14:22:00.698Z,7.35
2022-11-13T14:27:48.364Z,7.35
2022-11-13T14:30:41.067Z,7.10
2022-11-13T14:33:37.182Z,7.68
2022-11-13T14:36:33.371Z,7.35
2022-11-13T14:39:28.969Z,8.65
2022-11-13T14:42:27.372Z,8.43
2022-11-13T14:45:23.375Z,7.70
2022-11-13T14:48:21.258Z,7.70
2022-11-13T14:51:25.085Z,7.20
2022-11-13T14:54:46.902Z,7.30
2022-11-13T14:57:49.389Z,7.72
2022-11-13T15:00:43.345Z,6.93
2022-11-13T15:03:35.440Z,6.63
2022-11-13T15:06:35.305Z,7.50
2022-11-13T15:09:28.585Z,6.38
2022-11-13T15:12:20.691Z,8.23
2022-11-13T15:15:16.897Z,8.18
2022-11-13T15:18:16.462Z,7.38
2022-11-13T15:21:08.915Z,7.90
2022-11-13T15:24:01.906Z,9.18
2022-11-13T15:26:54.169Z,7.30
2022-11-13T15:29:46.902Z,7.88
2022-11-13T15:32:39.424Z,9.35
2022-11-13T15:35:33.381Z,9.52
2022-11-13T15:38:25.693Z,7.13
2022-11-13T15:41:22.717Z,6.88
2022-11-13T15:44:16.694Z,6.10
2022-11-13T15:47:24.003Z,6.30
2022-11-13T15:50:17.045Z,9.10
2022-11-13T15:53:13.321Z,7.22
2022-11-13T15:56:06.733Z,6.88
2022-11-13T15:58:59.958Z,7.97
2022-11-13T16:01:56.943Z,7.32
2022-11-13T16:04:57.118Z,8.50
2022-11-13T16:07:49.614Z,7.45
2022-11-13T16:10:43.146Z,8.05
2022-11-13T16:13:36.018Z,6.75
2022-11-13T16:16:33.927Z,7.93
2022-11-13T16:19:26.996Z,6.93
2022-11-13T16:22:22.354Z,7.22
2022-11-13T16:25:16.961Z,7.90
2022-11-13T16:28:16.413Z,7.50
2022-11-13T16:31:09.119Z,7.53
2022-11-13T16:34:01.452Z,6.93
2022-11-13T16:36:53.967Z,8.02
2022-11-13T16:39:46.985Z,7.05
2022-11-13T16:42:39.311Z,6.95
2022-11-13T16:45:33.398Z,7.90
2022-11-13T16:48:25.585Z,7.15
2022-11-13T16:51:17.990Z,7.10
2022-11-13T16:54:10.606Z,6.93
2022-11-13T16:57:03.333Z,7.18
2022-11-13T16:59:55.989Z,5.60
2022-11-13T17:02:52.727Z,7.80
2022-11-13T17:05:45.338Z,7.25
2022-11-13T17:08:37.650Z,5.88
2022-11-13T17:11:31.757Z,6.32
2022-11-13T17:14:24.068Z,6.72
2022-11-13T17:17:16.473Z,5.20
2022-11-13T17:20:11.974Z,6.20
2022-11-13T17:23:04.292Z,6.93
2022-11-13T17:25:56.561Z,5.60
2022-11-13T17:28:48.823Z,7.07
2022-11-13T17:31:41.276Z,8.82
2022-11-13T17:34:33.687Z,8.70
2022-11-13T17:37:27.393Z,8.70
2022-11-13T17:40:20.194Z,9.93
2022-11-13T17:43:12.515Z,9.73
2022-11-13T17:46:05.000Z,15.45
2022-11-13T17:48:57.845Z,10.48
2022-11-13T17:51:50.366Z,17.55
2022-11-13T17:54:44.285Z,27.83
2022-11-13T18:00:30.140Z,13.13
2022-11-13T18:03:22.652Z,27.60
2022-11-13T18:06:19.727Z,12.30
2022-11-13T18:09:13.032Z,14.50
2022-11-13T18:12:07.745Z,13.57
2022-11-13T18:15:00.075Z,14.10
2022-11-13T18:17:53.184Z,9.85
2022-11-13T18:20:45.971Z,16.83
2022-11-13T18:23:38.521Z,11.43
2022-11-13T18:26:32.601Z,10.60
2022-11-13T18:29:26.721Z,15.15
2022-11-13T18:32:19.586Z,10.57
2022-11-13T18:35:12.182Z,11.20
2022-11-13T18:38:04.594Z,15.45
2022-11-13T18:41:03.186Z,12.88
2022-11-13T18:43:55.542Z,12.60
2022-11-13T18:46:49.422Z,12.05
2022-11-13T18:49:41.829Z,11.18
2022-11-13T18:52:34.234Z,15.23
2022-11-13T18:55:26.933Z,11.88
2022-11-13T18:58:19.433Z,12.80
2022-11-13T19:01:16.274Z,10.50
2022-11-13T19:04:22.653Z,12.45
2022-11-13T19:07:16.003Z,8.15
2022-11-13T19:10:09.049Z,13.75
2022-11-13T19:13:01.609Z,7.18
2022-11-13T19:15:55.233Z,10.45
2022-11-13T19:18:52.953Z,11.35
2022-11-13T19:21:47.453Z,9.70
2022-11-13T19:24:39.810Z,8.63
2022-11-13T19:27:32.174Z,8.60
2022-11-13T19:30:24.884Z,8.82
2022-11-13T19:33:17.419Z,12.40
2022-11-13T19:36:12.744Z,12.57
2022-11-13T19:39:07.141Z,13.45
2022-11-13T19:44:52.370Z,7.55
2022-11-13T19:47:44.979Z,14.00
2022-11-13T19:50:37.588Z,11.90
2022-11-13T19:53:31.524Z,9.75
2022-11-13T19:56:27.186Z,10.63
2022-11-13T19:59:19.754Z,10.35
2022-11-13T20:02:12.305Z,11.32
2022-11-13T20:05:04.679Z,14.80
2022-11-13T20:07:58.566Z,13.73
2022-11-13T20:10:51.389Z,11.50
2022-11-13T20:13:46.475Z,10.38
2022-11-13T20:16:39.226Z,11.93
2022-11-13T20:19:31.867Z,12.20
2022-11-13T20:22:24.519Z,9.55
2022-11-13T20:25:17.306Z,12.90
2022-11-13T20:28:10.516Z,10.60
2022-11-13T20:31:13.517Z,11.70
2022-11-13T20:34:06.271Z,12.55
2022-11-13T20:36:58.916Z,9.07
2022-11-13T20:39:52.093Z,14.93
2022-11-13T20:42:44.651Z,10.05
2022-11-13T20:45:37.124Z,12.63
2022-11-13T20:48:31.162Z,7.72
2022-11-13T20:51:25.743Z,12.52
2022-11-13T20:54:18.236Z,8.43
2022-11-13T20:57:11.026Z,8.60
2022-11-13T21:00:03.826Z,6.35
2022-11-13T21:02:56.496Z,8.50
2022-11-13T21:05:50.445Z,8.60
2022-11-13T21:08:43.156Z,7.78
2022-11-13T21:11:35.449Z,6.40
2022-11-13T21:14:27.939Z,12.23
2022-11-13T21:17:20.667Z,9.35
2022-11-13T21:20:13.740Z,8.05
2022-11-13T21:23:07.609Z,7.57
2022-11-13T21:26:01.182Z,10.65
2022-11-13T21:28:55.854Z,7.40
2022-11-13T21:31:48.558Z,7.88
2022-11-13T21:34:41.342Z,10.45
2022-11-13T21:37:34.557Z,6.35
2022-11-13T21:40:28.420Z,12.57
2022-11-13T21:43:21.029Z,9.13
2022-11-13T21:46:14.557Z,7.53
2022-11-13T21:49:08.782Z,6.97
2022-11-13T21:52:01.082Z,8.48
2022-11-13T21:54:53.784Z,7.03
2022-11-13T21:57:47.868Z,10.60
2022-11-13T22:00:40.682Z,10.52
2022-11-13T22:03:33.403Z,10.57
2022-11-13T22:06:28.435Z,9.15
2022-11-13T22:09:23.367Z,10.60
2022-11-13T22:12:16.296Z,6.93
2022-11-13T22:15:12.223Z,9.52
2022-11-13T22:18:04.572Z,7.65
2022-11-13T22:21:01.699Z,5.10
2022-11-13T22:23:54.673Z,6.63
2022-11-13T22:26:48.018Z,5.82
2022-11-13T22:29:40.403Z,7.63
2022-11-13T22:32:34.338Z,10.98
2022-11-13T22:35:26.870Z,6.25
2022-11-13T22:38:19.135Z,10.52
2022-11-13T22:41:18.784Z,6.63
2022-11-13T22:44:15.561Z,9.60
2022-11-13T22:47:08.098Z,4.78
2022-11-13T22:50:02.349Z,6.72
2022-11-13T22:52:54.844Z,4.47
2022-11-13T22:55:47.190Z,4.35
2022-11-13T22:58:39.715Z,5.60
2022-11-13T23:01:34.289Z,7.30
2022-11-13T23:04:26.508Z,4.88
2022-11-13T23:07:20.336Z,6.97
2022-11-13T23:10:13.093Z,5.88
2022-11-13T23:13:05.539Z,6.05
2022-11-13T23:15:58.149Z,7.22
2022-11-13T23:18:51.504Z,4.80
2022-11-13T23:21:46.312Z,5.88
2022-11-13T23:24:40.395Z,6.57
2022-11-13T23:27:33.566Z,6.53
2022-11-13T23:30:26.181Z,3.25
2022-11-13T23:33:18.670Z,7.35
2022-11-13T23:36:12.264Z,6.45
2022-11-13T23:39:05.312Z,6.72
2022-11-13T23:41:59.090Z,7.57
2022-11-13T23:44:51.869Z,4.30
2022-11-13T23:47:44.761Z,4.57
2022-11-13T23:50:38.447Z,5.82
2022-11-13T23:53:31.024Z,3.95
2022-11-13T23:56:23.808Z,4.78
2022-11-13T23:59:17.775Z,5.10
